createdAt,value
2018-12-17T00:01:12.921Z,82.40
2018-12-17T00:03:44.134Z,82.60
2018-12-17T00:06:15.176Z,82.20
2018-12-17T00:08:44.842Z,81.40
2018-12-17T00:11:14.306Z,80.60
2018-12-17T00:13:43.485Z,80.80
2018-12-17T00:16:12.710Z,81.20
2018-12-17T00:18:41.861Z,80.80
2018-12-17T00:21:11.021Z,81.20
2018-12-17T00:23:40.133Z,81.00
2018-12-17T00:26:09.225Z,81.40
2018-12-17T00:28:38.377Z,81.70
2018-12-17T00:31:07.533Z,82.00
2018-12-17T00:33:36.721Z,81.40
2018-12-17T00:36:05.876Z,81.70
2018-12-17T00:38:35.015Z,80.80
2018-12-17T00:41:04.159Z,79.40
2018-12-17T00:43:33.607Z,79.60
2018-12-17T00:46:02.717Z,79.60
2018-12-17T00:48:32.345Z,79.30
2018-12-17T00:51:01.482Z,79.10
2018-12-17T00:53:30.533Z,78.80
2018-12-17T00:55:59.715Z,78.90
2018-12-17T00:58:28.887Z,78.80
2018-12-17T01:00:58.244Z,78.90
2018-12-17T01:03:28.384Z,79.00
2018-12-17T01:05:57.497Z,78.90
2018-12-17T01:08:26.691Z,79.20
2018-12-17T01:10:55.815Z,79.20
2018-12-17T01:13:24.988Z,78.90
2018-12-17T01:15:54.144Z,79.50
2018-12-17T01:18:23.396Z,79.30
2018-12-17T01:20:52.594Z,80.20
2018-12-17T01:23:21.704Z,79.60
2018-12-17T01:25:51.278Z,79.60
2018-12-17T01:28:22.293Z,79.60
2018-12-17T01:30:51.642Z,79.40
2018-12-17T01:33:20.792Z,79.70
2018-12-17T01:35:49.964Z,80.20
2018-12-17T01:38:19.134Z,80.80
2018-12-17T01:40:48.360Z,80.90
2018-12-17T01:43:17.479Z,81.70
2018-12-17T01:45:46.628Z,82.40
2018-12-17T01:48:15.755Z,83.50
2018-12-17T01:50:44.921Z,84.60
2018-12-17T01:53:14.029Z,85.30
2018-12-17T01:55:43.274Z,85.80
2018-12-17T01:58:12.482Z,86.40
2018-12-17T02:00:41.810Z,87.10
2018-12-17T02:03:11.041Z,87.60
2018-12-17T02:05:41.181Z,88.00
2018-12-17T02:08:10.335Z,87.90
2018-12-17T02:10:39.576Z,87.90
2018-12-17T02:13:08.627Z,87.80
2018-12-17T02:15:37.819Z,88.00
2018-12-17T02:18:06.979Z,88.50
2018-12-17T02:20:36.158Z,88.90
2018-12-17T02:23:05.371Z,88.80
2018-12-17T02:25:34.527Z,88.70
2018-12-17T02:28:03.669Z,89.00
2018-12-17T02:30:32.836Z,89.30
2018-12-17T02:33:01.990Z,89.80
2018-12-17T02:35:31.135Z,89.50
2018-12-17T02:38:00.296Z,89.80
2018-12-17T02:40:29.427Z,90.10
2018-12-17T02:42:58.561Z,90.10
2018-12-17T02:45:27.645Z,90.20
2018-12-17T02:47:56.819Z,90.50
2018-12-17T02:50:26.153Z,90.50
2018-12-17T02:52:55.246Z,90.50
2018-12-17T02:55:25.389Z,91.10
2018-12-17T02:57:54.527Z,90.70
2018-12-17T03:00:23.624Z,90.80
2018-12-17T03:02:52.779Z,90.80
2018-12-17T03:05:22.011Z,90.80
2018-12-17T03:07:51.179Z,90.80
2018-12-17T03:10:20.314Z,90.90
2018-12-17T03:12:49.458Z,90.80
2018-12-17T03:15:18.581Z,90.80
2018-12-17T03:17:47.780Z,90.80
2018-12-17T03:20:16.924Z,90.80
2018-12-17T03:22:46.079Z,90.90
2018-12-17T03:25:15.203Z,91.00
2018-12-17T03:27:44.359Z,91.20
2018-12-17T03:30:13.614Z,91.30
2018-12-17T03:32:42.772Z,91.40
2018-12-17T03:35:12.386Z,91.60
2018-12-17T03:37:41.543Z,91.70
2018-12-17T03:40:10.925Z,91.80
2018-12-17T03:42:40.070Z,92.00
2018-12-17T03:45:09.419Z,92.20
2018-12-17T03:47:38.590Z,92.20
2018-12-17T03:50:09.851Z,92.40
2018-12-17T03:52:38.959Z,92.50
2018-12-17T03:55:08.199Z,92.70
2018-12-17T03:57:37.471Z,93.00
2018-12-17T04:00:07.255Z,93.10
2018-12-17T04:02:36.415Z,93.30
2018-12-17T04:05:06.424Z,93.40
2018-12-17T04:07:36.622Z,93.60
2018-12-17T04:10:06.293Z,93.60
2018-12-17T04:12:35.452Z,93.60
2018-12-17T04:15:04.952Z,93.70
2018-12-17T04:17:35.205Z,93.90
2018-12-17T04:20:04.558Z,94.00
2018-12-17T04:22:33.695Z,94.00
2018-12-17T04:25:03.050Z,94.00
2018-12-17T04:27:33.242Z,94.20
2018-12-17T04:30:02.376Z,94.20
2018-12-17T04:32:32.640Z,94.20
2018-12-17T04:35:01.748Z,94.50
2018-12-17T04:37:31.997Z,94.00
2018-12-17T04:40:01.196Z,94.00
2018-12-17T04:42:30.343Z,94.10
2018-12-17T04:44:59.575Z,94.20
2018-12-17T04:47:28.721Z,94.30
2018-12-17T04:49:57.854Z,94.00
2018-12-17T04:52:27.039Z,94.00
2018-12-17T04:54:56.152Z,93.70
2018-12-17T04:57:25.276Z,93.50
2018-12-17T04:59:54.576Z,93.60
2018-12-17T05:02:23.722Z,93.60
2018-12-17T05:04:52.860Z,93.40
2018-12-17T05:07:21.988Z,93.20
2018-12-17T05:09:51.218Z,92.80
2018-12-17T05:12:20.547Z,92.80
2018-12-17T05:14:49.662Z,92.50
2018-12-17T05:17:18.971Z,92.50
2018-12-17T05:19:48.121Z,92.30
2018-12-17T05:22:17.250Z,92.40
2018-12-17T05:24:47.413Z,92.30
2018-12-17T05:27:17.259Z,92.50
2018-12-17T05:29:46.371Z,92.40
2018-12-17T05:32:15.468Z,92.50
2018-12-17T05:34:44.643Z,92.50
2018-12-17T05:37:14.501Z,92.60
2018-12-17T05:39:43.645Z,92.70
2018-12-17T05:42:12.797Z,92.60
2018-12-17T05:44:41.919Z,92.70
2018-12-17T05:47:11.045Z,92.80
2018-12-17T05:49:40.152Z,92.90
2018-12-17T05:52:09.253Z,93.10
2018-12-17T05:54:38.359Z,93.10
2018-12-17T05:57:07.549Z,93.30
2018-12-17T05:59:36.666Z,93.20
2018-12-17T06:02:05.870Z,93.20
2018-12-17T06:04:35.009Z,93.20
2018-12-17T06:07:04.228Z,93.10
2018-12-17T06:09:33.688Z,93.10
2018-12-17T06:12:02.968Z,93.00
2018-12-17T06:14:32.300Z,92.90
2018-12-17T06:17:01.431Z,93.20
2018-12-17T06:19:30.595Z,93.30
2018-12-17T06:21:59.709Z,93.20
2018-12-17T06:24:28.877Z,93.20
2018-12-17T06:26:58.057Z,93.30
2018-12-17T06:29:27.177Z,93.40
2018-12-17T06:31:56.377Z,93.50
2018-12-17T06:34:25.492Z,93.40
2018-12-17T06:36:54.641Z,93.40
2018-12-17T06:39:23.963Z,93.50
2018-12-17T06:41:53.121Z,93.40
2018-12-17T06:44:22.251Z,93.40
2018-12-17T06:46:51.485Z,93.50
2018-12-17T06:49:20.649Z,93.60
2018-12-17T06:51:50.189Z,93.90
2018-12-17T06:54:20.141Z,94.00
2018-12-17T06:56:49.318Z,94.10
2018-12-17T06:59:18.481Z,94.30
2018-12-17T07:01:48.223Z,94.40
2018-12-17T07:04:17.347Z,94.50
2018-12-17T07:06:46.487Z,94.80
2018-12-17T07:09:16.143Z,94.90
2018-12-17T07:11:45.261Z,95.10
2018-12-17T07:14:14.547Z,95.20
2018-12-17T07:16:44.875Z,95.30
2018-12-17T07:19:14.025Z,95.20
2018-12-17T07:21:43.144Z,95.20
2018-12-17T07:24:12.303Z,95.00
2018-12-17T07:26:41.472Z,95.10
2018-12-17T07:29:10.631Z,94.80
2018-12-17T07:31:39.815Z,95.00
2018-12-17T07:34:09.013Z,95.10
2018-12-17T07:36:38.159Z,95.00
2018-12-17T07:39:08.935Z,95.00
2018-12-17T07:41:38.211Z,94.80
2018-12-17T07:44:07.404Z,94.80
2018-12-17T07:46:36.570Z,94.90
2018-12-17T07:49:05.739Z,94.90
2018-12-17T07:51:34.911Z,94.90
2018-12-17T07:54:04.077Z,94.80
2018-12-17T07:56:33.258Z,94.80
2018-12-17T07:59:02.505Z,94.90
2018-12-17T08:01:31.685Z,95.00
2018-12-17T08:04:00.851Z,95.00
2018-12-17T08:06:30.032Z,94.90
2018-12-17T08:08:59.184Z,94.70
2018-12-17T08:11:28.284Z,94.60
2018-12-17T08:13:57.481Z,94.60
2018-12-17T08:16:26.769Z,94.50
2018-12-17T08:18:55.964Z,94.50
2018-12-17T08:21:25.150Z,94.50
2018-12-17T08:23:54.239Z,94.60
2018-12-17T08:26:23.447Z,94.70
2018-12-17T08:28:52.576Z,94.70
2018-12-17T08:31:21.711Z,94.70
2018-12-17T08:33:50.906Z,94.60
2018-12-17T08:36:20.015Z,94.50
2018-12-17T08:38:49.169Z,94.40
2018-12-17T08:41:18.347Z,94.50
2018-12-17T08:43:47.503Z,94.50
2018-12-17T08:46:18.515Z,94.40
2018-12-17T08:48:47.711Z,94.10
2018-12-17T08:51:17.123Z,93.90
2018-12-17T08:53:46.312Z,94.10
2018-12-17T08:56:16.564Z,94.30
2018-12-17T08:58:45.703Z,94.70
2018-12-17T09:01:15.008Z,94.50
2018-12-17T09:03:44.184Z,94.30
2018-12-17T09:06:13.416Z,94.20
2018-12-17T09:08:42.610Z,94.30
2018-12-17T09:11:11.708Z,94.40
2018-12-17T09:13:40.894Z,94.40
2018-12-17T09:16:10.052Z,94.40
2018-12-17T09:18:40.286Z,94.40
2018-12-17T09:21:09.556Z,94.30
2018-12-17T09:23:38.684Z,94.30
2018-12-17T09:26:07.827Z,94.20
2018-12-17T09:28:37.005Z,94.10
2018-12-17T09:31:06.155Z,93.90
2018-12-17T09:33:36.466Z,94.00
2018-12-17T09:36:05.600Z,94.10
2018-12-17T09:38:34.734Z,94.10
2018-12-17T09:41:03.980Z,94.00
2018-12-17T09:43:33.210Z,93.70
2018-12-17T09:46:02.330Z,93.70
2018-12-17T09:48:31.517Z,93.50
2018-12-17T09:51:00.700Z,93.30
2018-12-17T09:53:29.884Z,93.40
2018-12-17T09:55:59.077Z,93.40
2018-12-17T09:58:28.379Z,93.50
2018-12-17T10:00:57.485Z,93.40
2018-12-17T10:03:26.826Z,93.40
2018-12-17T10:05:55.972Z,93.30
2018-12-17T10:08:25.149Z,92.90
2018-12-17T10:10:54.302Z,92.70
2018-12-17T10:13:23.512Z,92.50
2018-12-17T10:15:52.812Z,92.40
2018-12-17T10:18:21.944Z,92.30
2018-12-17T10:20:51.258Z,92.10
2018-12-17T10:23:20.502Z,92.10
2018-12-17T10:25:49.594Z,92.10
2018-12-17T10:28:18.795Z,91.90
2018-12-17T10:30:47.911Z,91.60
2018-12-17T10:33:17.066Z,91.50
2018-12-17T10:35:46.226Z,91.10
2018-12-17T10:38:16.916Z,91.20
2018-12-17T10:40:46.133Z,91.20
2018-12-17T10:43:16.504Z,91.50
2018-12-17T10:45:45.670Z,91.20
2018-12-17T10:48:14.780Z,91.30
2018-12-17T10:50:43.914Z,91.20
2018-12-17T10:53:13.443Z,91.20
2018-12-17T10:55:42.603Z,91.10
2018-12-17T10:58:11.788Z,91.00
2018-12-17T11:00:46.522Z,91.20
2018-12-17T11:03:20.657Z,91.00
2018-12-17T11:05:50.437Z,90.80
2018-12-17T11:08:19.555Z,90.70
2018-12-17T11:10:48.661Z,90.40
2018-12-17T11:13:17.873Z,90.40
2018-12-17T11:15:47.037Z,90.30
2018-12-17T11:18:16.225Z,90.20
2018-12-17T11:20:46.563Z,90.00
2018-12-17T11:23:18.169Z,90.10
2018-12-17T11:25:47.582Z,90.10
2018-12-17T11:28:16.757Z,90.00
2018-12-17T11:30:46.600Z,90.20
2018-12-17T11:33:16.203Z,90.10
2018-12-17T11:35:45.386Z,90.00
2018-12-17T11:38:14.701Z,90.10
2018-12-17T11:40:45.070Z,88.50
2018-12-17T11:43:14.296Z,88.60
2018-12-17T11:45:43.485Z,88.30
2018-12-17T11:48:12.602Z,88.30
2018-12-17T11:50:41.809Z,88.20
2018-12-17T11:53:10.959Z,88.30
2018-12-17T11:55:40.109Z,88.20
2018-12-17T11:58:14.608Z,87.50
2018-12-17T12:01:18.088Z,87.10
2018-12-17T12:03:47.357Z,86.80
2018-12-17T12:06:16.651Z,87.30
2018-12-17T12:08:45.827Z,85.90
2018-12-17T12:11:15.053Z,86.10
2018-12-17T12:13:44.223Z,85.30
2018-12-17T12:16:13.453Z,85.50
2018-12-17T12:18:42.603Z,85.80
2018-12-17T12:21:11.778Z,86.10
2018-12-17T12:23:41.887Z,85.30
2018-12-17T12:26:11.167Z,84.30
2018-12-17T12:28:40.313Z,83.70
2018-12-17T12:31:09.472Z,81.80
2018-12-17T12:33:38.677Z,80.60
2018-12-17T12:36:07.852Z,81.20
2018-12-17T12:38:37.035Z,80.30
2018-12-17T12:41:06.502Z,79.70
2018-12-17T12:43:35.684Z,80.40
2018-12-17T12:46:04.875Z,80.20
2018-12-17T12:48:34.041Z,82.40
2018-12-17T12:51:03.203Z,81.50
2018-12-17T12:53:32.342Z,81.70
2018-12-17T12:56:01.508Z,79.90
2018-12-17T12:58:30.732Z,79.30
2018-12-17T13:00:59.852Z,79.10
2018-12-17T13:03:29.029Z,78.00
2018-12-17T13:05:58.195Z,78.20
2018-12-17T13:08:28.373Z,78.40
2018-12-17T13:10:57.531Z,79.00
2018-12-17T13:13:26.658Z,77.30
2018-12-17T13:15:55.770Z,77.20
2018-12-17T13:18:24.934Z,79.10
2018-12-17T13:20:54.087Z,79.30
2018-12-17T13:23:23.277Z,79.00
2018-12-17T13:25:53.044Z,79.50
2018-12-17T13:28:22.243Z,80.20
2018-12-17T13:30:51.380Z,79.70
2018-12-17T13:33:20.556Z,79.40
2018-12-17T13:35:49.708Z,78.80
2018-12-17T13:38:19.034Z,79.70
2018-12-17T13:40:48.109Z,79.40
2018-12-17T13:43:17.316Z,78.40
2018-12-17T13:45:46.421Z,78.20
2018-12-17T13:48:15.621Z,79.30
2018-12-17T13:50:44.769Z,79.40
2018-12-17T13:53:19.406Z,79.20
2018-12-17T13:55:48.505Z,78.50
2018-12-17T13:58:17.646Z,79.00
2018-12-17T14:00:46.915Z,78.70
2018-12-17T14:03:16.082Z,79.10
2018-12-17T14:05:45.360Z,79.50
2018-12-17T14:08:14.752Z,79.60
2018-12-17T14:10:49.430Z,79.60
2018-12-17T14:13:18.708Z,79.70
2018-12-17T14:15:54.350Z,79.60
2018-12-17T14:18:28.860Z,79.80
2018-12-17T14:22:07.091Z,80.10
2018-12-17T14:24:36.271Z,80.20
2018-12-17T14:27:05.532Z,80.40
2018-12-17T14:29:35.050Z,80.60
2018-12-17T14:32:05.251Z,80.60
2018-12-17T14:34:34.624Z,80.90
2018-12-17T14:37:03.989Z,81.30
2018-12-17T14:39:33.161Z,81.60
2018-12-17T14:42:02.331Z,81.50
2018-12-17T14:44:34.925Z,81.70
2018-12-17T14:47:04.250Z,82.10
2018-12-17T14:49:33.421Z,82.50
2018-12-17T14:52:02.596Z,82.90
2018-12-17T14:54:31.774Z,83.20
2018-12-17T14:57:01.005Z,83.30
2018-12-17T14:59:30.209Z,83.70
2018-12-17T15:01:59.422Z,84.10
2018-12-17T15:04:28.633Z,84.60
2018-12-17T15:06:57.921Z,84.80
2018-12-17T15:09:27.133Z,85.10
2018-12-17T15:11:56.287Z,85.40
2018-12-17T15:14:25.477Z,85.40
2018-12-17T15:16:55.661Z,85.80
2018-12-17T15:19:24.881Z,86.10
2018-12-17T15:21:54.051Z,86.40
2018-12-17T15:24:23.219Z,86.80
2018-12-17T15:26:52.417Z,87.20
2018-12-17T15:29:21.820Z,87.30
2018-12-17T15:31:51.076Z,87.50
2018-12-17T15:34:20.243Z,87.70
2018-12-17T15:36:49.391Z,88.00
2018-12-17T15:39:18.601Z,88.20
2018-12-17T15:41:47.812Z,88.70
2018-12-17T15:44:17.071Z,88.80
2018-12-17T15:46:46.320Z,88.70
2018-12-17T15:49:15.589Z,89.00
2018-12-17T15:51:44.961Z,89.20
2018-12-17T15:54:14.248Z,89.90
2018-12-17T15:56:43.379Z,90.00
2018-12-17T15:59:12.932Z,90.30
2018-12-17T16:01:42.065Z,90.70
2018-12-17T16:04:11.225Z,90.50
2018-12-17T16:06:40.500Z,90.60
2018-12-17T16:09:09.798Z,90.80
2018-12-17T16:11:39.080Z,90.90
2018-12-17T16:14:08.433Z,91.00
2018-12-17T16:16:37.624Z,91.10
2018-12-17T16:19:06.786Z,91.20
2018-12-17T16:21:36.040Z,91.30
2018-12-17T16:24:05.218Z,91.40
2018-12-17T16:26:34.467Z,91.40
2018-12-17T16:29:03.815Z,91.70
2018-12-17T16:31:33.204Z,91.20
2018-12-17T16:34:02.603Z,91.20
2018-12-17T16:36:32.260Z,91.30
2018-12-17T16:39:01.459Z,91.30
2018-12-17T16:41:30.834Z,91.40
2018-12-17T16:46:59.812Z,91.60
2018-12-17T16:49:29.009Z,91.60
2018-12-17T16:51:59.256Z,91.70
2018-12-17T16:54:28.674Z,91.70
2018-12-17T16:56:58.929Z,91.90
2018-12-17T16:59:28.007Z,92.10
2018-12-17T17:02:04.281Z,92.10
2018-12-17T17:04:28.343Z,92.10
2018-12-17T17:06:57.500Z,92.40
2018-12-17T17:09:26.651Z,92.20
2018-12-17T17:11:55.848Z,92.20
2018-12-17T17:14:25.025Z,92.30
2018-12-17T17:16:54.364Z,92.40
2018-12-17T17:19:23.499Z,92.40
2018-12-17T17:21:52.856Z,92.40
2018-12-17T17:24:22.035Z,92.50
2018-12-17T17:26:51.294Z,92.60
2018-12-17T17:29:20.440Z,92.70
2018-12-17T17:31:50.888Z,93.30
2018-12-17T17:34:20.145Z,93.00
2018-12-17T17:36:49.316Z,93.10
2018-12-17T17:39:18.492Z,93.20
2018-12-17T17:41:47.675Z,93.20
2018-12-17T17:44:16.825Z,93.20
2018-12-17T17:46:45.939Z,93.30
2018-12-17T17:49:15.210Z,93.30
2018-12-17T17:51:44.341Z,93.40
2018-12-17T17:54:13.789Z,93.70
2018-12-17T17:56:42.955Z,93.30
2018-12-17T17:59:12.096Z,93.30
2018-12-17T18:01:41.237Z,93.40
2018-12-17T18:04:10.374Z,93.60
2018-12-17T18:06:39.672Z,93.50
2018-12-17T18:09:10.034Z,93.60
2018-12-17T18:11:39.222Z,93.60
2018-12-17T18:14:08.370Z,93.70
2018-12-17T18:16:37.557Z,93.60
2018-12-17T18:19:06.737Z,93.70
2018-12-17T18:21:35.910Z,93.70
2018-12-17T18:24:05.080Z,93.70
2018-12-17T18:26:34.244Z,93.80
2018-12-17T18:30:32.603Z,93.80
2018-12-17T18:33:01.791Z,93.90
2018-12-17T18:35:31.044Z,93.90
2018-12-17T18:38:00.182Z,93.90
2018-12-17T18:40:29.373Z,93.90
2018-12-17T18:42:58.540Z,94.00
2018-12-17T18:45:27.735Z,94.00
2018-12-17T18:47:56.870Z,94.00
2018-12-17T18:50:26.190Z,94.20
2018-12-17T18:52:55.295Z,94.30
2018-12-17T18:55:24.544Z,94.30
2018-12-17T18:57:53.722Z,94.40
2018-12-17T19:00:22.818Z,94.40
2018-12-17T19:02:52.030Z,94.40
2018-12-17T19:05:21.112Z,94.40
2018-12-17T19:09:19.716Z,94.40
2018-12-17T19:11:48.900Z,94.40
2018-12-17T19:14:18.070Z,94.50
2018-12-17T19:16:47.300Z,94.70
2018-12-17T19:19:16.468Z,94.80
2018-12-17T19:21:45.666Z,94.90
2018-12-17T19:24:14.872Z,94.90
2018-12-17T19:26:44.004Z,95.00
2018-12-17T19:29:13.137Z,95.00
2018-12-17T19:31:42.330Z,95.00
2018-12-17T19:34:11.580Z,95.10
2018-12-17T19:36:40.777Z,95.20
2018-12-17T19:39:09.926Z,95.20
2018-12-17T19:41:41.072Z,95.10
2018-12-17T19:44:10.383Z,95.10
2018-12-17T19:46:39.664Z,95.10
2018-12-17T19:49:08.885Z,95.10
2018-12-17T19:51:38.079Z,95.30
2018-12-17T19:54:07.205Z,95.40
2018-12-17T19:56:36.438Z,95.50
2018-12-17T19:59:05.584Z,95.40
2018-12-17T20:01:34.720Z,95.40
2018-12-17T20:04:03.868Z,95.60
2018-12-17T20:06:33.059Z,95.60
2018-12-17T20:09:02.256Z,95.70
2018-12-17T20:11:32.690Z,95.70
2018-12-17T20:14:01.801Z,95.60
2018-12-17T20:16:30.934Z,95.60
2018-12-17T20:19:00.127Z,95.60
2018-12-17T20:21:29.277Z,95.70
2018-12-17T20:23:58.442Z,95.70
2018-12-17T20:26:27.611Z,95.70
2018-12-17T20:28:56.723Z,95.70
2018-12-17T20:31:25.935Z,95.70
2018-12-17T20:33:55.150Z,95.90
2018-12-17T20:36:24.413Z,95.90
2018-12-17T20:38:53.674Z,96.10
2018-12-17T20:41:22.879Z,96.10
2018-12-17T20:43:52.058Z,96.10
2018-12-17T20:46:21.277Z,96.10
2018-12-17T20:48:50.442Z,96.10
2018-12-17T20:51:19.627Z,96.10
2018-12-17T20:53:49.976Z,96.10
2018-12-17T20:56:19.664Z,96.10
2018-12-17T20:58:48.871Z,96.40
2018-12-17T21:01:18.085Z,96.30
2018-12-17T21:03:47.275Z,96.80
2018-12-17T21:06:16.942Z,96.50
2018-12-17T21:08:46.207Z,96.60
2018-12-17T21:11:15.485Z,96.60
2018-12-17T21:13:44.654Z,96.70
2018-12-17T21:16:14.202Z,96.70
2018-12-17T21:18:43.359Z,96.60
2018-12-17T21:21:12.543Z,96.60
2018-12-17T21:23:42.586Z,96.60
2018-12-17T21:26:11.873Z,96.50
2018-12-17T21:28:41.079Z,96.50
2018-12-17T21:31:10.366Z,96.60
2018-12-17T21:33:39.569Z,96.90
2018-12-17T21:36:08.803Z,96.70
2018-12-17T21:38:38.091Z,96.70
2018-12-17T21:41:07.359Z,96.70
2018-12-17T21:43:36.650Z,96.80
2018-12-17T21:46:05.813Z,96.80
2018-12-17T21:48:35.094Z,96.80
2018-12-17T21:51:04.345Z,96.80
2018-12-17T21:53:33.641Z,96.90
2018-12-17T21:56:02.834Z,97.00
2018-12-17T21:58:32.093Z,96.90
2018-12-17T22:01:01.267Z,96.90
2018-12-17T22:03:31.533Z,96.90
2018-12-17T22:06:00.740Z,96.80
2018-12-17T22:08:29.916Z,96.90
2018-12-17T22:10:59.236Z,96.90
2018-12-17T22:13:28.405Z,97.00
2018-12-17T22:15:57.560Z,97.00
2018-12-17T22:18:26.742Z,97.00
2018-12-17T22:20:56.100Z,97.10
2018-12-17T22:23:25.216Z,97.00
2018-12-17T22:25:54.515Z,97.00
2018-12-17T22:28:23.694Z,97.00
2018-12-17T22:30:52.990Z,96.90
2018-12-17T22:33:22.124Z,97.00
2018-12-17T22:35:51.308Z,96.90
2018-12-17T22:38:20.476Z,97.00
2018-12-17T22:40:49.679Z,97.40
2018-12-17T22:44:48.406Z,97.10
2018-12-17T22:47:17.525Z,97.00
2018-12-17T22:49:46.669Z,96.90
2018-12-17T22:52:15.833Z,97.20
2018-12-17T22:54:45.172Z,97.30
2018-12-17T22:57:14.552Z,97.30
2018-12-17T22:59:43.909Z,97.40
2018-12-17T23:02:13.081Z,97.40
2018-12-17T23:04:42.220Z,97.50
2018-12-17T23:07:12.477Z,97.50
2018-12-17T23:09:53.156Z,97.50
2018-12-17T23:12:33.506Z,97.60
2018-12-17T23:15:14.020Z,97.70
2018-12-17T23:17:42.700Z,97.70
2018-12-17T23:20:11.967Z,97.70
2018-12-17T23:22:43.862Z,97.80
2018-12-17T23:25:15.114Z,97.90
2018-12-17T23:27:49.794Z,97.90
2018-12-17T23:30:21.262Z,98.00
2018-12-17T23:32:50.496Z,98.40
2018-12-17T23:35:19.709Z,98.10
2018-12-17T23:37:48.917Z,98.20
2018-12-17T23:40:18.054Z,98.20
2018-12-17T23:42:48.336Z,98.10
2018-12-17T23:45:20.394Z,98.00
2018-12-17T23:47:49.731Z,98.00
2018-12-17T23:50:18.872Z,97.90
2018-12-17T23:52:48.044Z,97.80
2018-12-17T23:55:17.164Z,97.80
2018-12-17T23:57:46.360Z,97.80
